Time;durP1;ratioP1;P1;durP2;ratioP2;P2;SDS_P1;SDS_P2;PMS_P1;PMS_P2;Temp;Humidity;BMP_temperature;BMP_pressure;BME280_temperature;BME280_humidity;BME280_pressure;Samples;Min_cycle;Max_cycle;Signal;HPM_P1;HPM_P2
2024/02/03 00:02:19;;;;;;;171.63;161.80;;;10.20;99.90;;;;;;5030673;28;20041;-74
2024/02/03 00:04:45;;;;;;;213.20;201.00;;;10.30;99.90;;;;;;5032207;28;20041;-74
2024/02/03 00:07:11;;;;;;;176.60;166.80;;;10.20;99.90;;;;;;5030986;28;20033;-74
2024/02/03 00:09:37;;;;;;;178.45;167.93;;;10.20;99.90;;;;;;5031684;28;20033;-74
2024/02/03 00:12:04;;;;;;;213.98;201.57;;;10.10;99.90;;;;;;5031413;28;20025;-73
2024/02/03 00:14:30;;;;;;;216.32;203.63;;;10.00;99.90;;;;;;5032053;28;20037;-74
2024/02/03 00:16:57;;;;;;;175.88;165.93;;;9.90;99.90;;;;;;5030674;28;20585;-74
2024/02/03 00:19:23;;;;;;;178.73;168.38;;;9.90;99.90;;;;;;5031930;28;20041;-74
2024/02/03 00:21:49;;;;;;;157.70;148.63;;;9.90;99.90;;;;;;5031079;28;20064;-74
2024/02/03 00:24:15;;;;;;;172.35;162.77;;;9.80;99.90;;;;;;5033465;28;20036;-73
2024/02/03 00:26:42;;;;;;;163.07;153.93;;;9.90;99.90;;;;;;5035073;28;20100;-74
2024/02/03 00:29:08;;;;;;;137.82;129.95;;;9.90;99.90;;;;;;5035661;28;20033;-74
2024/02/03 00:31:34;;;;;;;147.35;138.95;;;9.90;99.90;;;;;;5034877;28;20037;-73
2024/02/03 00:34:00;;;;;;;154.45;145.38;;;9.90;99.90;;;;;;5035901;28;20382;-74
2024/02/03 00:36:26;;;;;;;128.90;121.50;;;9.90;99.90;;;;;;5034660;28;20025;-74
2024/02/03 00:38:52;;;;;;;105.85;99.90;;;9.90;99.90;;;;;;5035661;28;20040;-74
2024/02/03 00:41:18;;;;;;;160.55;151.15;;;10.00;99.90;;;;;;5034540;28;20041;-73
2024/02/03 00:43:44;;;;;;;118.50;111.55;;;9.90;99.90;;;;;;5035705;28;20025;-73
2024/02/03 00:46:11;;;;;;;128.10;120.60;;;9.90;99.90;;;;;;5034588;28;20052;-73
2024/02/03 00:48:38;;;;;;;73.82;69.10;;;10.10;99.90;;;;;;5035092;28;20037;-73
2024/02/03 00:51:09;;;;;;;89.50;84.03;;;10.10;99.90;;;;;;5034265;28;20044;-74
2024/02/03 00:53:41;;;;;;;158.48;149.50;;;10.30;99.90;;;;;;5035444;28;20048;-73
2024/02/03 00:56:08;;;;;;;200.55;189.20;;;10.30;99.90;;;;;;5034811;28;20042;-73
2024/02/03 00:58:34;;;;;;;188.20;177.70;;;10.30;99.90;;;;;;5034093;28;20029;-73
2024/02/03 01:01:00;;;;;;;203.40;191.43;;;10.20;99.90;;;;;;5033983;28;20390;-74
2024/02/03 01:03:26;;;;;;;141.57;133.63;;;10.10;99.90;;;;;;5035115;28;20470;-74
2024/02/03 01:05:53;;;;;;;183.38;173.32;;;10.10;99.90;;;;;;5034598;28;20022;-74
2024/02/03 01:08:19;;;;;;;104.10;97.72;;;10.20;99.90;;;;;;5034785;28;20040;-74
2024/02/03 01:10:45;;;;;;;168.88;159.57;;;10.10;99.90;;;;;;5033615;28;20041;-74
2024/02/03 01:13:12;;;;;;;179.23;169.20;;;10.10;99.90;;;;;;5034749;28;20105;-74
2024/02/03 01:15:38;;;;;;;236.07;222.73;;;10.10;99.90;;;;;;5034243;28;20025;-74
2024/02/03 01:18:04;;;;;;;152.50;143.77;;;10.10;99.90;;;;;;5016514;28;20042;-74
2024/02/03 01:20:31;;;;;;;254.73;240.15;;;10.10;99.90;;;;;;5034004;28;20030;-74
2024/02/03 01:22:57;;;;;;;182.80;172.50;;;9.90;99.90;;;;;;5034719;28;20496;-74
2024/02/03 01:25:23;;;;;;;184.68;174.32;;;10.10;99.90;;;;;;5034570;28;20037;-74
2024/02/03 01:27:49;;;;;;;265.42;250.25;;;10.10;99.90;;;;;;5034379;28;20057;-73
2024/02/03 01:30:16;;;;;;;286.20;269.80;;;10.20;99.90;;;;;;5032113;28;20386;-73
2024/02/03 01:32:42;;;;;;;251.52;237.75;;;10.10;99.90;;;;;;5032461;28;20037;-73
2024/02/03 01:35:09;;;;;;;274.92;259.05;;;10.20;99.90;;;;;;5034220;28;20490;-74
2024/02/03 01:37:35;;;;;;;224.32;211.65;;;10.20;99.90;;;;;;5026518;28;20048;-74
2024/02/03 01:40:02;;;;;;;201.85;190.73;;;10.10;99.90;;;;;;5033977;28;20049;-74
2024/02/03 01:42:28;;;;;;;215.35;203.15;;;10.10;99.90;;;;;;5034182;28;20033;-74
2024/02/03 01:44:54;;;;;;;236.48;223.10;;;10.20;99.90;;;;;;5032924;28;20474;-74
2024/02/03 01:47:20;;;;;;;164.60;155.43;;;10.30;99.90;;;;;;5032883;28;20048;-73
2024/02/03 01:49:46;;;;;;;195.90;184.77;;;10.30;99.90;;;;;;5033704;28;20044;-74
2024/02/03 01:52:13;;;;;;;160.43;151.18;;;10.30;99.90;;;;;;5033779;28;20396;-74
2024/02/03 01:54:39;;;;;;;215.82;203.85;;;10.30;99.90;;;;;;5034055;28;20521;-73
2024/02/03 01:57:05;;;;;;;178.38;168.30;;;10.40;99.90;;;;;;5032974;28;20049;-74
2024/02/03 01:59:31;;;;;;;209.00;197.15;;;10.40;99.90;;;;;;5032750;28;20402;-74
2024/02/03 02:01:59;;;;;;;204.18;192.70;;;10.50;99.90;;;;;;5033206;28;20037;-73
2024/02/03 02:04:26;;;;;;;172.95;163.18;;;10.50;99.90;;;;;;5033753;28;20052;-73
2024/02/03 02:06:52;;;;;;;85.50;80.30;;;10.50;99.90;;;;;;5033696;28;20033;-74
2024/02/03 02:09:22;;;;;;;100.05;94.28;;;10.60;99.90;;;;;;5033854;28;20481;-73
2024/02/03 02:11:48;;;;;;;146.57;138.32;;;10.70;99.90;;;;;;5033049;28;20041;-73
2024/02/03 02:14:14;;;;;;;142.48;134.23;;;10.70;99.90;;;;;;5034017;28;20040;-73
2024/02/03 02:16:40;;;;;;;151.63;142.93;;;10.70;99.90;;;;;;5031326;28;20056;-73
2024/02/03 02:19:06;;;;;;;184.90;174.55;;;10.90;99.90;;;;;;5033534;28;20470;-73
2024/02/03 02:21:32;;;;;;;140.68;132.75;;;10.80;99.90;;;;;;5033238;28;20029;-73
2024/02/03 02:23:58;;;;;;;174.85;164.63;;;10.90;99.90;;;;;;5033893;28;20029;-73
2024/02/03 02:26:25;;;;;;;178.32;168.02;;;10.90;99.90;;;;;;5033251;28;20033;-73
2024/02/03 02:28:51;;;;;;;173.30;163.05;;;10.90;99.90;;;;;;5033664;28;20033;-74
2024/02/03 02:31:17;;;;;;;159.88;150.35;;;11.00;99.90;;;;;;5030576;28;20474;-74
2024/02/03 02:33:43;;;;;;;220.05;206.98;;;11.00;99.90;;;;;;5033741;28;20489;-74
2024/02/03 02:36:09;;;;;;;199.20;187.10;;;11.00;99.90;;;;;;5033009;28;20068;-74
2024/02/03 02:38:36;;;;;;;282.95;265.80;;;11.00;99.90;;;;;;5032015;28;20027;-73
2024/02/03 02:41:02;;;;;;;216.95;204.25;;;11.00;99.90;;;;;;5031905;28;20046;-74
2024/02/03 02:43:28;;;;;;;255.25;240.85;;;11.00;99.90;;;;;;5033087;28;20021;-73
2024/02/03 02:45:56;;;;;;;194.18;183.15;;;11.10;99.90;;;;;;5031463;28;20036;-73
2024/02/03 02:48:22;;;;;;;168.93;159.32;;;11.10;99.90;;;;;;5033315;28;20029;-74
2024/02/03 02:50:48;;;;;;;162.70;153.40;;;11.10;99.90;;;;;;5032311;28;20033;-73
2024/02/03 02:53:14;;;;;;;179.13;168.88;;;11.00;99.90;;;;;;5033117;28;20026;-72
2024/02/03 02:55:40;;;;;;;178.30;167.77;;;11.00;99.90;;;;;;5032709;28;20038;-73
2024/02/03 02:58:06;;;;;;;169.70;159.60;;;11.00;99.90;;;;;;5032396;28;20040;-74
2024/02/03 03:00:33;;;;;;;145.20;136.77;;;11.10;99.90;;;;;;5031032;28;20048;-74
2024/02/03 03:03:00;;;;;;;155.40;146.57;;;11.10;99.90;;;;;;5027880;28;20037;-73
2024/02/03 03:05:26;;;;;;;164.60;155.00;;;11.10;99.90;;;;;;5026016;28;20084;-74
2024/02/03 03:07:53;;;;;;;166.07;156.32;;;11.10;99.90;;;;;;5030920;28;20045;-73
2024/02/03 03:10:20;;;;;;;161.27;151.80;;;11.00;99.90;;;;;;5031060;28;20066;-74
2024/02/03 03:12:46;;;;;;;163.15;153.68;;;11.00;99.90;;;;;;5031315;28;20079;-74
2024/02/03 03:15:12;;;;;;;186.43;175.38;;;11.00;99.90;;;;;;5030078;28;20397;-73
2024/02/03 03:17:38;;;;;;;196.13;185.10;;;11.00;99.90;;;;;;5030861;28;20030;-73
2024/02/03 03:20:05;;;;;;;184.45;174.00;;;11.00;99.90;;;;;;5030843;28;20049;-73
2024/02/03 03:22:31;;;;;;;164.10;154.77;;;11.00;99.90;;;;;;5030583;28;20034;-74
2024/02/03 03:24:57;;;;;;;172.70;162.73;;;11.00;99.90;;;;;;5031331;28;20391;-73
2024/02/03 03:27:23;;;;;;;185.05;174.60;;;11.00;99.90;;;;;;5030836;28;20030;-73
2024/02/03 03:29:50;;;;;;;191.57;180.57;;;11.00;99.90;;;;;;5030885;28;20056;-74
2024/02/03 03:32:16;;;;;;;163.35;153.90;;;11.00;99.90;;;;;;5028992;28;20042;-73
2024/02/03 03:34:43;;;;;;;179.70;169.27;;;11.10;99.90;;;;;;5062480;28;20053;-73
2024/02/03 03:37:09;;;;;;;178.73;168.38;;;11.10;99.90;;;;;;5031147;28;20033;-74
2024/02/03 03:39:35;;;;;;;170.15;160.18;;;11.10;99.90;;;;;;5032272;28;20040;-73
2024/02/03 03:42:01;;;;;;;160.55;151.23;;;11.10;99.90;;;;;;5031268;28;20482;-73
2024/02/03 03:44:27;;;;;;;152.98;144.07;;;11.10;99.90;;;;;;5032240;28;20029;-74
2024/02/03 03:46:55;;;;;;;155.43;146.20;;;11.10;99.90;;;;;;5031172;28;20511;-74
2024/02/03 03:49:21;;;;;;;172.32;162.15;;;11.10;99.90;;;;;;5031562;28;20045;-74
2024/02/03 03:51:47;;;;;;;180.85;170.15;;;11.00;99.90;;;;;;5031322;28;20456;-73
2024/02/03 03:54:13;;;;;;;169.77;159.60;;;11.00;99.90;;;;;;5032185;28;20036;-74
2024/02/03 03:56:39;;;;;;;155.85;146.43;;;11.10;99.90;;;;;;5031373;28;20561;-73
2024/02/03 03:59:05;;;;;;;165.50;155.82;;;11.00;99.90;;;;;;5031077;28;20040;-74
2024/02/03 04:01:31;;;;;;;170.70;160.65;;;11.00;99.90;;;;;;5030745;28;20410;-74
2024/02/03 04:03:57;;;;;;;151.85;142.85;;;11.10;99.90;;;;;;5032152;28;20036;-73
2024/02/03 04:06:24;;;;;;;136.55;128.43;;;11.10;99.90;;;;;;5031552;28;20398;-74
2024/02/03 04:08:50;;;;;;;128.93;121.15;;;11.10;99.90;;;;;;5031338;28;20045;-73
2024/02/03 04:11:16;;;;;;;135.68;127.55;;;11.10;99.90;;;;;;5030977;28;20041;-73
2024/02/03 04:13:42;;;;;;;147.57;138.77;;;11.10;99.90;;;;;;5031832;28;20394;-74
2024/02/03 04:16:08;;;;;;;140.63;132.32;;;11.10;99.90;;;;;;5031228;28;20044;-73
2024/02/03 04:18:34;;;;;;;140.63;132.00;;;11.10;99.90;;;;;;5015988;28;20034;-73
2024/02/03 04:21:01;;;;;;;139.75;131.38;;;11.10;99.90;;;;;;5030908;28;20494;-73
2024/02/03 04:23:27;;;;;;;148.30;139.35;;;11.10;99.90;;;;;;5031402;28;20040;-74
2024/02/03 04:25:54;;;;;;;176.60;165.70;;;11.10;99.90;;;;;;5031539;28;20464;-73
2024/02/03 04:28:20;;;;;;;148.38;139.52;;;11.00;99.90;;;;;;5045329;28;20036;-74
2024/02/03 04:30:46;;;;;;;137.05;128.77;;;11.00;99.90;;;;;;5045566;28;20037;-73
2024/02/03 04:33:12;;;;;;;144.50;135.43;;;11.10;99.90;;;;;;5031213;28;20029;-73
2024/02/03 04:35:38;;;;;;;135.73;127.57;;;11.10;99.90;;;;;;5031355;28;20036;-74
2024/02/03 04:38:04;;;;;;;133.23;125.20;;;11.10;99.90;;;;;;5031551;28;20036;-73
2024/02/03 04:40:30;;;;;;;136.75;128.43;;;11.00;99.90;;;;;;5031152;28;20045;-73
2024/02/03 04:42:56;;;;;;;137.25;129.13;;;11.10;99.90;;;;;;5030898;28;20037;-74
2024/02/03 04:45:22;;;;;;;152.02;143.15;;;11.00;99.90;;;;;;5031122;28;20583;-74
2024/02/03 04:47:48;;;;;;;160.70;151.18;;;11.00;99.90;;;;;;5030801;28;20041;-73
2024/02/03 04:50:14;;;;;;;136.27;128.18;;;11.10;99.90;;;;;;5031381;28;20040;-73
2024/02/03 04:52:41;;;;;;;157.68;148.40;;;11.10;99.90;;;;;;5031232;28;20033;-73
2024/02/03 04:55:07;;;;;;;151.23;142.27;;;11.10;99.90;;;;;;5030300;28;20040;-74
2024/02/03 04:57:33;;;;;;;168.63;158.38;;;11.10;99.90;;;;;;5030928;28;20030;-73
2024/02/03 04:59:59;;;;;;;179.38;168.82;;;11.10;99.90;;;;;;5031568;28;20044;-73
2024/02/03 05:02:25;;;;;;;152.38;143.23;;;11.10;99.90;;;;;;5030028;28;20033;-73
2024/02/03 05:04:51;;;;;;;157.27;147.93;;;11.10;99.90;;;;;;5031571;28;20029;-73
2024/02/03 05:07:17;;;;;;;166.60;156.68;;;11.00;99.90;;;;;;5027069;28;20348;-73
2024/02/03 05:09:43;;;;;;;176.05;165.68;;;11.00;99.90;;;;;;5022361;28;20025;-73
2024/02/03 05:12:09;;;;;;;162.23;152.43;;;11.00;99.90;;;;;;5029318;28;20398;-73
2024/02/03 05:14:35;;;;;;;173.23;162.77;;;11.10;99.90;;;;;;5034739;28;20056;-73
2024/02/03 05:17:01;;;;;;;175.77;163.98;;;11.00;99.90;;;;;;5034301;28;20045;-73
2024/02/03 05:19:28;;;;;;;198.48;186.68;;;11.00;99.90;;;;;;5035168;28;20136;-73
2024/02/03 05:21:54;;;;;;;161.55;151.85;;;11.00;99.90;;;;;;5034036;28;20047;-72
2024/02/03 05:24:20;;;;;;;165.95;156.05;;;10.90;99.90;;;;;;5034517;28;20037;-73
2024/02/03 05:26:46;;;;;;;408.38;364.48;;;10.90;99.90;;;;;;5034420;28;20048;-73
2024/02/03 05:29:12;;;;;;;289.30;271.70;;;10.90;99.90;;;;;;5034980;28;20439;-73
2024/02/03 05:31:38;;;;;;;163.00;153.07;;;10.90;99.90;;;;;;5033756;28;20042;-72
2024/02/03 05:34:04;;;;;;;204.57;192.30;;;10.90;99.90;;;;;;5034927;28;20040;-73
2024/02/03 05:36:30;;;;;;;163.70;153.63;;;10.90;99.90;;;;;;5033781;28;20041;-73
2024/02/03 05:38:56;;;;;;;148.68;139.63;;;10.90;99.90;;;;;;5033461;28;20033;-73
2024/02/03 05:41:22;;;;;;;135.23;126.95;;;11.00;99.90;;;;;;5033775;28;20056;-73
2024/02/03 05:43:49;;;;;;;133.88;125.65;;;11.00;99.90;;;;;;5034109;28;20029;-73
2024/02/03 05:46:15;;;;;;;129.48;121.80;;;11.00;99.90;;;;;;5033364;28;20041;-73
2024/02/03 05:48:41;;;;;;;123.47;116.15;;;11.10;99.90;;;;;;5034741;28;20033;-73
2024/02/03 05:51:07;;;;;;;123.88;116.50;;;11.00;99.90;;;;;;5034408;28;20037;-73
2024/02/03 05:53:35;;;;;;;124.22;116.70;;;11.00;99.90;;;;;;5034025;28;20041;-73
2024/02/03 05:56:02;;;;;;;117.70;110.57;;;11.00;99.90;;;;;;5032747;28;20514;-73
2024/02/03 05:58:28;;;;;;;125.13;117.70;;;11.00;99.90;;;;;;5033617;28;20021;-73
2024/02/03 06:00:55;;;;;;;116.65;109.50;;;11.00;99.90;;;;;;5032334;28;20402;-73
2024/02/03 06:03:24;;;;;;;115.25;108.40;;;11.10;99.90;;;;;;5033257;28;20037;-73
2024/02/03 06:05:50;;;;;;;117.00;109.60;;;11.10;99.90;;;;;;5034291;28;20048;-73
2024/02/03 06:08:16;;;;;;;111.25;104.60;;;11.10;99.90;;;;;;5033986;28;20478;-73
2024/02/03 06:10:42;;;;;;;116.53;109.45;;;11.10;99.90;;;;;;5033327;28;20022;-72
2024/02/03 06:13:08;;;;;;;114.35;107.45;;;11.10;99.90;;;;;;5034384;28;20030;-73
2024/02/03 06:15:34;;;;;;;122.97;115.50;;;11.10;99.90;;;;;;5032314;28;20056;-73
2024/02/03 06:18:00;;;;;;;110.88;104.22;;;11.10;99.90;;;;;;5032547;28;20021;-73
2024/02/03 06:20:26;;;;;;;106.80;100.22;;;11.10;99.90;;;;;;5032699;28;20113;-74
2024/02/03 06:22:52;;;;;;;121.38;114.07;;;11.10;99.90;;;;;;5034096;28;20025;-73
2024/02/03 06:25:18;;;;;;;107.18;100.60;;;11.00;99.90;;;;;;5032434;28;20474;-73
2024/02/03 06:27:44;;;;;;;109.32;102.57;;;11.00;99.90;;;;;;5033299;28;20033;-73
2024/02/03 06:30:11;;;;;;;113.70;106.72;;;11.00;99.90;;;;;;5032872;28;20394;-73
2024/02/03 06:32:37;;;;;;;101.75;95.53;;;11.00;99.90;;;;;;5033883;28;20032;-73
2024/02/03 06:35:03;;;;;;;103.05;96.88;;;11.00;99.90;;;;;;5033870;28;20033;-73
2024/02/03 06:37:29;;;;;;;109.70;103.10;;;11.00;99.90;;;;;;5032468;28;20052;-73
2024/02/03 06:39:55;;;;;;;122.28;114.95;;;11.00;99.90;;;;;;5033036;28;20033;-72
2024/02/03 06:42:22;;;;;;;116.32;109.38;;;10.80;99.90;;;;;;5032200;28;20059;-73
2024/02/03 06:44:48;;;;;;;111.63;104.93;;;10.80;99.90;;;;;;5033265;28;20482;-73
2024/02/03 06:47:15;;;;;;;165.70;156.00;;;10.90;99.90;;;;;;5032479;28;20045;-73
2024/02/03 06:49:41;;;;;;;272.13;256.48;;;10.80;99.90;;;;;;5033530;28;20045;-73
2024/02/03 06:52:07;;;;;;;217.38;205.00;;;10.70;99.90;;;;;;5032822;28;20037;-73
2024/02/03 06:54:33;;;;;;;154.23;145.00;;;10.70;99.90;;;;;;5033514;28;20033;-73
2024/02/03 06:56:59;;;;;;;164.10;154.48;;;10.80;99.90;;;;;;5032564;28;20082;-73
2024/02/03 06:59:25;;;;;;;189.40;178.45;;;10.90;99.90;;;;;;5033068;28;20021;-73
2024/02/03 07:01:51;;;;;;;207.07;195.30;;;10.90;99.90;;;;;;5032237;28;20068;-73
2024/02/03 07:04:18;;;;;;;147.85;139.20;;;10.90;99.90;;;;;;5032504;28;20041;-76
2024/02/03 07:06:44;;;;;;;160.73;151.38;;;10.90;99.90;;;;;;5051791;28;20052;-73
2024/02/03 07:09:10;;;;;;;150.02;141.10;;;11.00;99.90;;;;;;5012965;28;20037;-73
2024/02/03 07:11:36;;;;;;;138.30;130.02;;;11.00;99.90;;;;;;5025851;28;20044;-73
2024/02/03 07:14:02;;;;;;;138.30;130.18;;;11.00;99.90;;;;;;5032254;28;20041;-73
2024/02/03 07:16:28;;;;;;;136.43;128.35;;;11.10;99.90;;;;;;5029926;28;20040;-73
2024/02/03 07:18:54;;;;;;;127.30;119.70;;;11.00;99.90;;;;;;5033040;28;20056;-73
2024/02/03 07:21:20;;;;;;;130.88;123.18;;;10.90;99.90;;;;;;5031724;28;20033;-73
2024/02/03 07:23:46;;;;;;;128.02;120.38;;;11.00;99.90;;;;;;5031281;28;20033;-73
2024/02/03 07:26:12;;;;;;;146.40;137.95;;;10.90;99.90;;;;;;5032643;28;20042;-73
2024/02/03 07:28:39;;;;;;;147.75;139.10;;;10.90;99.90;;;;;;5019936;28;20030;-73
2024/02/03 07:31:05;;;;;;;130.35;122.57;;;10.90;99.90;;;;;;5026835;28;20041;-73
2024/02/03 07:33:31;;;;;;;117.28;110.22;;;11.00;99.90;;;;;;5032590;28;20025;-73
2024/02/03 07:35:57;;;;;;;120.82;113.65;;;11.00;99.90;;;;;;5032430;28;20033;-72
2024/02/03 07:38:25;;;;;;;103.10;96.75;;;11.00;99.90;;;;;;5015683;28;20483;-73
2024/02/03 07:40:51;;;;;;;100.53;94.25;;;11.00;99.90;;;;;;5016293;28;20064;-73
2024/02/03 07:43:17;;;;;;;94.47;88.50;;;11.00;99.90;;;;;;5031908;28;20025;-73
2024/02/03 07:45:43;;;;;;;123.22;115.95;;;11.00;99.90;;;;;;5018626;28;20399;-73
2024/02/03 07:48:09;;;;;;;102.72;96.45;;;11.00;99.90;;;;;;5018782;28;20033;-74
2024/02/03 07:50:36;;;;;;;103.55;97.18;;;11.00;99.90;;;;;;5032182;28;20450;-73
2024/02/03 07:53:02;;;;;;;97.32;91.32;;;11.00;99.90;;;;;;5032498;28;20034;-73
2024/02/03 07:55:28;;;;;;;101.00;94.90;;;11.00;99.90;;;;;;5019979;28;20034;-73
2024/02/03 07:57:54;;;;;;;119.07;111.88;;;10.90;99.90;;;;;;5032170;28;20052;-73
2024/02/03 08:00:20;;;;;;;141.68;133.32;;;11.00;99.90;;;;;;5031440;28;20029;-73
2024/02/03 08:02:46;;;;;;;111.97;105.18;;;10.90;99.90;;;;;;5030360;28;20390;-73
2024/02/03 08:05:12;;;;;;;127.88;120.38;;;11.00;99.90;;;;;;5031631;28;20060;-73
2024/02/03 08:07:40;;;;;;;125.28;117.88;;;11.00;99.90;;;;;;5030794;28;20064;-73
2024/02/03 08:10:06;;;;;;;125.40;117.93;;;11.00;99.90;;;;;;5032304;28;20052;-73
2024/02/03 08:12:33;;;;;;;198.63;187.30;;;11.00;99.90;;;;;;5032622;28;20045;-73
2024/02/03 08:14:59;;;;;;;172.75;162.40;;;10.80;99.90;;;;;;5030049;28;20038;-73
2024/02/03 08:17:25;;;;;;;199.75;188.45;;;10.70;99.90;;;;;;5031352;28;20052;-73
2024/02/03 08:19:51;;;;;;;140.73;132.40;;;10.80;99.90;;;;;;5031677;28;20115;-73
2024/02/03 08:22:17;;;;;;;136.05;127.93;;;10.90;99.90;;;;;;5031273;28;20053;-73
2024/02/03 08:24:43;;;;;;;116.28;109.25;;;10.90;99.90;;;;;;5030957;28;20041;-73
2024/02/03 08:27:09;;;;;;;123.18;115.68;;;10.90;99.90;;;;;;5031811;28;20048;-74
2024/02/03 08:29:36;;;;;;;105.18;98.90;;;11.00;99.90;;;;;;5030715;28;20033;-73
2024/02/03 08:32:02;;;;;;;104.60;98.30;;;11.00;99.90;;;;;;5031067;28;20037;-73
2024/02/03 08:34:28;;;;;;;144.02;135.52;;;11.00;99.90;;;;;;5031777;28;20037;-74
2024/02/03 08:36:54;;;;;;;99.90;93.82;;;10.90;99.90;;;;;;5030999;28;20046;-73
2024/02/03 08:39:20;;;;;;;146.32;137.68;;;10.90;99.90;;;;;;5031922;28;20033;-73
2024/02/03 08:41:46;;;;;;;164.88;155.27;;;10.90;99.90;;;;;;5031358;28;20057;-74
2024/02/03 08:44:12;;;;;;;112.40;105.63;;;10.90;99.90;;;;;;5029777;28;20028;-74
2024/02/03 08:46:38;;;;;;;96.25;90.38;;;10.90;99.90;;;;;;5033556;28;20052;-73
2024/02/03 08:49:04;;;;;;;101.95;95.85;;;11.00;99.90;;;;;;5035573;28;20458;-74
2024/02/03 08:51:30;;;;;;;111.70;105.07;;;11.00;99.90;;;;;;5035216;28;20030;-73
2024/02/03 08:53:56;;;;;;;100.85;94.88;;;11.00;99.90;;;;;;5035746;28;20065;-73
2024/02/03 08:56:23;;;;;;;119.63;112.63;;;11.10;99.90;;;;;;5035121;28;20045;-74
2024/02/03 08:58:49;;;;;;;103.57;97.53;;;11.10;99.90;;;;;;5033157;28;20045;-73
2024/02/03 09:01:15;;;;;;;93.63;87.88;;;11.10;99.90;;;;;;5033843;28;20057;-73
2024/02/03 09:03:41;;;;;;;96.97;91.13;;;11.10;99.90;;;;;;5035161;28;20033;-74
2024/02/03 09:06:10;;;;;;;99.32;93.15;;;11.10;99.90;;;;;;5035153;28;20033;-73
2024/02/03 09:08:36;;;;;;;101.78;95.20;;;11.10;99.90;;;;;;5035327;28;20025;-72
2024/02/03 09:11:02;;;;;;;91.68;86.07;;;11.10;99.90;;;;;;5033876;28;20040;-73
2024/02/03 09:13:28;;;;;;;95.40;89.57;;;11.10;99.90;;;;;;5034823;28;20044;-73
2024/02/03 09:15:54;;;;;;;100.13;93.88;;;11.10;99.90;;;;;;5034593;28;20041;-72
2024/02/03 09:18:20;;;;;;;91.45;85.85;;;11.10;99.90;;;;;;5034837;28;20025;-73
2024/02/03 09:20:46;;;;;;;92.55;87.03;;;11.00;99.90;;;;;;5033885;28;20048;-73
2024/02/03 09:23:12;;;;;;;106.20;99.75;;;11.00;99.90;;;;;;5033894;28;20041;-74
2024/02/03 09:25:39;;;;;;;94.22;88.63;;;11.10;99.90;;;;;;5034351;28;20041;-73
2024/02/03 09:28:06;;;;;;;104.97;98.93;;;11.10;99.90;;;;;;5033357;28;20045;-73
2024/02/03 09:30:32;;;;;;;127.45;120.18;;;11.10;99.90;;;;;;5032391;28;20038;-73
2024/02/03 09:32:58;;;;;;;139.88;131.88;;;11.20;99.90;;;;;;5034567;28;20036;-73
2024/02/03 09:35:25;;;;;;;148.57;140.13;;;11.20;99.90;;;;;;5033074;28;20033;-73
2024/02/03 09:37:51;;;;;;;115.35;108.57;;;11.20;99.90;;;;;;5034558;28;20439;-73
2024/02/03 09:40:23;;;;;;;116.78;109.78;;;11.10;99.90;;;;;;5034266;28;20033;-73
2024/02/03 09:42:49;;;;;;;118.72;111.75;;;11.20;99.90;;;;;;5034752;28;20479;-73
2024/02/03 09:45:15;;;;;;;129.77;122.47;;;11.10;99.90;;;;;;5016271;28;20360;-72
2024/02/03 09:47:42;;;;;;;114.60;107.90;;;11.10;99.90;;;;;;5032761;28;20513;-73
2024/02/03 09:50:08;;;;;;;137.68;129.23;;;11.20;99.90;;;;;;5034428;28;20141;-73
2024/02/03 09:52:35;;;;;;;136.57;128.63;;;11.30;99.90;;;;;;5034307;28;20037;-72
2024/02/03 09:55:01;;;;;;;139.25;131.40;;;11.30;99.90;;;;;;5032559;28;20030;-73
2024/02/03 09:57:27;;;;;;;136.18;128.48;;;11.30;99.90;;;;;;5032135;28;20056;-73
2024/02/03 09:59:53;;;;;;;142.75;134.40;;;11.30;99.90;;;;;;5016731;28;20093;-73
2024/02/03 10:02:19;;;;;;;129.93;122.35;;;11.40;99.90;;;;;;5031608;28;20046;-73
2024/02/03 10:04:45;;;;;;;132.77;125.13;;;11.40;99.90;;;;;;5032443;28;20390;-73
2024/02/03 10:07:16;;;;;;;118.97;111.75;;;11.40;99.90;;;;;;5032123;28;20056;-72
2024/02/03 10:09:42;;;;;;;118.90;111.75;;;11.40;99.90;;;;;;5023269;28;20025;-73
2024/02/03 10:12:24;;;;;;;115.57;108.55;;;11.40;99.90;;;;;;5033278;28;20041;-72
2024/02/03 10:15:03;;;;;;;156.20;146.85;;;11.50;99.90;;;;;;5032105;28;20048;-72
2024/02/03 10:17:29;;;;;;;161.65;151.90;;;11.50;99.90;;;;;;5031875;28;20046;-72
2024/02/03 10:19:55;;;;;;;136.05;127.63;;;11.50;99.90;;;;;;5033403;28;20390;-71
2024/02/03 10:22:21;;;;;;;135.82;127.45;;;11.50;99.90;;;;;;5033371;28;20042;-72
2024/02/03 10:24:47;;;;;;;129.40;121.32;;;11.40;99.90;;;;;;5032906;28;20034;-73
2024/02/03 10:27:13;;;;;;;150.13;140.75;;;11.50;99.90;;;;;;5030976;28;20038;-73
2024/02/03 10:29:39;;;;;;;176.57;165.73;;;11.50;99.90;;;;;;5021591;28;20038;-73
2024/02/03 10:32:06;;;;;;;244.95;229.30;;;11.60;99.90;;;;;;5031911;28;20041;-73
2024/02/03 10:34:32;;;;;;;221.45;207.13;;;11.60;99.90;;;;;;5029612;28;20034;-73
2024/02/03 10:36:58;;;;;;;228.27;213.25;;;11.50;99.90;;;;;;5029873;28;20500;-74
2024/02/03 10:39:24;;;;;;;246.88;230.85;;;11.50;99.90;;;;;;5027862;28;20038;-74
2024/02/03 10:41:50;;;;;;;337.30;316.00;;;11.60;99.90;;;;;;5031303;28;20053;-74
2024/02/03 10:44:22;;;;;;;404.02;379.08;;;11.60;99.90;;;;;;5014860;28;20466;-74
2024/02/03 10:46:48;;;;;;;317.23;298.50;;;11.70;99.90;;;;;;5032235;28;20041;-74
2024/02/03 10:49:15;;;;;;;126.55;118.97;;;11.70;99.90;;;;;;5037138;28;20501;-73
2024/02/03 10:51:42;;;;;;;194.60;183.40;;;11.70;99.90;;;;;;5039124;28;20052;-73
2024/02/03 10:54:14;;;;;;;186.55;175.98;;;11.70;99.90;;;;;;5022660;28;20298;-74
2024/02/03 10:56:41;;;;;;;113.88;106.85;;;11.80;99.90;;;;;;5032036;28;20060;-71
2024/02/03 10:59:07;;;;;;;144.07;134.90;;;11.80;99.90;;;;;;5031307;28;20386;-74
2024/02/03 11:01:34;;;;;;;138.65;129.88;;;11.80;99.90;;;;;;5029592;28;20042;-74
2024/02/03 11:04:00;;;;;;;176.13;164.90;;;11.80;99.90;;;;;;5029318;28;20037;-73
2024/02/03 11:06:33;;;;;;;200.10;188.07;;;11.80;99.90;;;;;;5030418;28;20048;-74
2024/02/03 11:09:20;;;;;;;202.57;187.70;;;11.70;99.90;;;;;;5031317;28;20037;-74
2024/02/03 11:11:47;;;;;;;171.40;156.90;;;11.80;99.90;;;;;;5032019;28;20033;-74
2024/02/03 11:14:20;;;;;;;151.35;142.05;;;11.80;99.90;;;;;;5030568;28;20029;-74
2024/02/03 11:17:01;;;;;;;113.80;106.72;;;11.80;99.90;;;;;;5028269;28;20038;-74
2024/02/03 11:19:33;;;;;;;167.02;156.05;;;11.80;99.90;;;;;;5033307;28;20048;-74
2024/02/03 11:22:00;;;;;;;146.68;138.02;;;11.70;99.90;;;;;;5031225;28;20045;-74
2024/02/03 11:24:26;;;;;;;137.45;129.13;;;11.70;99.90;;;;;;5031930;28;20382;-74
2024/02/03 11:27:03;;;;;;;144.88;136.80;;;11.60;99.90;;;;;;5029916;28;20033;-74
2024/02/03 11:29:30;;;;;;;140.98;132.65;;;11.70;99.90;;;;;;5031653;28;20029;-73
2024/02/03 11:31:59;;;;;;;144.90;136.55;;;11.60;99.90;;;;;;5030491;28;20497;-73
2024/02/03 11:34:27;;;;;;;134.82;127.05;;;11.60;99.90;;;;;;5031163;28;20041;-74
2024/02/03 11:36:55;;;;;;;165.70;156.63;;;11.40;99.90;;;;;;5029929;28;20044;-74
2024/02/03 11:39:31;;;;;;;174.50;164.70;;;11.50;99.90;;;;;;5027590;28;20406;-73
2024/02/03 11:41:58;;;;;;;189.95;179.52;;;11.50;99.90;;;;;;5029699;28;20056;-73
2024/02/03 11:44:35;;;;;;;150.98;142.60;;;11.40;99.90;;;;;;5029441;28;20033;-74
2024/02/03 11:47:05;;;;;;;137.43;129.63;;;11.30;99.90;;;;;;5014862;28;20092;-74
2024/02/03 11:49:32;;;;;;;159.40;150.57;;;11.30;99.90;;;;;;5031717;28;20482;-74
2024/02/03 11:52:01;;;;;;;165.88;156.57;;;11.30;99.90;;;;;;5030884;28;20044;-74
2024/02/03 11:54:28;;;;;;;202.52;191.65;;;11.20;99.90;;;;;;5029925;28;20045;-73
2024/02/03 11:56:54;;;;;;;167.30;158.45;;;11.30;99.90;;;;;;5030706;28;20398;-71
2024/02/03 11:59:27;;;;;;;144.48;136.38;;;11.30;99.90;;;;;;5028805;28;20048;-72
2024/02/03 12:01:53;;;;;;;143.00;134.75;;;11.30;99.90;;;;;;5025421;28;20049;-72
2024/02/03 12:04:19;;;;;;;149.98;141.93;;;11.30;99.90;;;;;;5031139;28;20033;-72
2024/02/03 12:06:46;;;;;;;172.40;163.10;;;11.40;99.90;;;;;;5030139;28;20038;-72
2024/02/03 12:09:12;;;;;;;201.85;191.00;;;11.50;99.90;;;;;;5032231;28;20459;-72